createdAt,value
2023-03-04T00:00:16.595Z,0.40
2023-03-04T00:02:44.687Z,0.30
2023-03-04T00:05:13.723Z,0.60
2023-03-04T00:07:41.786Z,0.70
2023-03-04T00:10:13.336Z,0.70
2023-03-04T00:12:41.319Z,0.60
2023-03-04T00:15:10.719Z,0.70
2023-03-04T00:17:38.701Z,0.60
2023-03-04T00:20:08.702Z,0.60
2023-03-04T00:22:36.700Z,0.50
2023-03-04T00:25:05.376Z,0.60
2023-03-04T00:27:34.719Z,0.50
2023-03-04T00:30:02.712Z,0.50
2023-03-04T00:32:30.859Z,0.60
2023-03-04T00:34:58.820Z,0.30
2023-03-04T00:37:26.822Z,0.10
2023-03-04T00:39:54.789Z,0.20
2023-03-04T00:42:22.771Z,0.10
2023-03-04T00:44:52.413Z,0.30
2023-03-04T00:47:20.409Z,0.20
2023-03-04T00:49:48.468Z,0.30
2023-03-04T00:52:16.452Z,0.00
2023-03-04T00:54:44.556Z,0.30
2023-03-04T00:57:12.589Z,0.30
2023-03-04T00:59:43.696Z,0.30
2023-03-04T01:02:13.381Z,0.20
2023-03-04T01:04:41.847Z,0.30
2023-03-04T01:07:10.129Z,0.20
2023-03-04T01:09:38.179Z,0.20
2023-03-04T01:12:06.583Z,0.60
2023-03-04T01:14:34.561Z,0.50
2023-03-04T01:17:02.688Z,0.70
2023-03-04T01:19:32.127Z,0.40
2023-03-04T01:22:00.174Z,0.50
2023-03-04T01:24:29.920Z,0.30
2023-03-04T01:26:57.946Z,0.40
2023-03-04T01:29:25.994Z,0.20
2023-03-04T01:31:54.013Z,0.00
2023-03-04T01:34:22.053Z,0.50
2023-03-04T01:36:51.338Z,0.40
2023-03-04T01:39:19.322Z,0.50
2023-03-04T01:41:47.561Z,0.50
2023-03-04T01:44:16.055Z,0.60
2023-03-04T01:46:50.088Z,0.80
2023-03-04T01:49:18.506Z,0.70
2023-03-04T01:51:52.243Z,0.50
2023-03-04T01:54:22.168Z,0.60
2023-03-04T01:56:52.459Z,0.20
2023-03-04T01:59:22.751Z,0.50
2023-03-04T02:01:53.524Z,0.70
2023-03-04T02:04:26.198Z,1.00
2023-03-04T02:06:56.357Z,1.00
2023-03-04T02:09:24.715Z,0.90
2023-03-04T02:11:53.854Z,1.20
2023-03-04T02:14:22.617Z,1.00
2023-03-04T02:16:50.941Z,0.90
2023-03-04T02:19:34.284Z,0.80
2023-03-04T02:22:03.841Z,0.70
2023-03-04T02:24:38.102Z,0.90
2023-03-04T02:27:07.510Z,1.00
2023-03-04T02:29:35.823Z,1.10
2023-03-04T02:32:03.961Z,1.00
2023-03-04T02:34:35.678Z,1.20
2023-03-04T02:37:04.879Z,0.90
2023-03-04T02:39:36.193Z,0.90
2023-03-04T02:42:06.969Z,1.10
2023-03-04T02:44:37.559Z,1.00
2023-03-04T02:47:08.814Z,1.00
2023-03-04T02:49:39.283Z,0.90
2023-03-04T02:52:10.110Z,0.90
2023-03-04T02:54:39.879Z,0.70
2023-03-04T02:57:12.430Z,0.80
2023-03-04T02:59:41.653Z,0.80
2023-03-04T03:02:10.762Z,0.90
2023-03-04T03:04:40.653Z,1.00
2023-03-04T03:07:09.090Z,1.00
2023-03-04T03:09:37.129Z,0.70
2023-03-04T03:12:05.368Z,0.70
2023-03-04T03:14:34.708Z,0.60
2023-03-04T03:17:02.744Z,0.70
2023-03-04T03:19:30.740Z,0.90
2023-03-04T03:21:58.713Z,0.70
2023-03-04T03:24:26.721Z,0.60
2023-03-04T03:26:54.809Z,0.40
2023-03-04T03:29:22.826Z,0.50
2023-03-04T03:31:52.264Z,0.60
2023-03-04T03:34:20.286Z,0.80
2023-03-04T03:36:48.296Z,0.90
2023-03-04T03:39:16.475Z,0.90
2023-03-04T03:41:44.667Z,1.10
2023-03-04T03:44:12.691Z,1.30
2023-03-04T03:46:40.714Z,1.10
2023-03-04T03:49:10.111Z,1.40
2023-03-04T03:51:38.068Z,1.10
2023-03-04T03:54:06.340Z,1.40
2023-03-04T03:56:34.312Z,1.50
2023-03-04T03:59:02.458Z,1.60
2023-03-04T04:01:30.563Z,1.80
2023-03-04T04:03:58.532Z,1.80
2023-03-04T04:06:28.025Z,1.70
2023-03-04T04:08:56.370Z,1.70
2023-03-04T04:11:24.549Z,1.90
2023-03-04T04:13:52.606Z,2.10
2023-03-04T04:16:20.753Z,2.00
2023-03-04T04:18:48.813Z,2.10
2023-03-04T04:21:16.994Z,2.30
2023-03-04T04:23:46.331Z,2.20
2023-03-04T04:26:14.329Z,2.30
2023-03-04T04:28:42.444Z,2.50
2023-03-04T04:31:10.998Z,2.70
2023-03-04T04:33:39.007Z,2.60
2023-03-04T04:36:08.477Z,2.60
2023-03-04T04:38:37.651Z,2.70
2023-03-04T04:41:07.458Z,2.90
2023-03-04T04:43:35.504Z,2.90
2023-03-04T04:46:03.532Z,2.80
2023-03-04T04:48:31.542Z,2.80
2023-03-04T04:50:59.585Z,3.00
2023-03-04T04:53:27.583Z,3.10
2023-03-04T04:55:55.639Z,3.20
2023-03-04T04:58:25.280Z,3.10
2023-03-04T05:00:53.460Z,3.00
2023-03-04T05:03:23.438Z,3.10
2023-03-04T05:05:51.657Z,3.20
2023-03-04T05:08:19.697Z,3.40
2023-03-04T05:10:47.666Z,3.20
2023-03-04T05:13:15.676Z,3.10
2023-03-04T05:15:45.104Z,3.20
2023-03-04T05:18:13.198Z,3.30
2023-03-04T05:20:41.181Z,3.40
2023-03-04T05:23:09.186Z,3.50
2023-03-04T05:25:37.430Z,3.50
2023-03-04T05:28:07.165Z,3.50
2023-03-04T05:30:35.166Z,3.40
2023-03-04T05:33:04.470Z,3.50
2023-03-04T05:35:32.581Z,3.70
2023-03-04T05:38:00.582Z,3.80
2023-03-04T05:40:29.233Z,3.80
2023-03-04T05:42:57.676Z,3.60
2023-03-04T05:45:26.647Z,3.70
2023-03-04T05:47:55.655Z,3.40
2023-03-04T05:50:25.679Z,3.30
2023-03-04T05:52:54.350Z,3.30
2023-03-04T05:55:22.625Z,3.40
2023-03-04T05:57:50.893Z,3.50
2023-03-04T06:00:19.641Z,3.50
2023-03-04T06:02:47.675Z,3.60
2023-03-04T06:05:16.730Z,3.90
2023-03-04T06:07:46.309Z,4.10
2023-03-04T06:10:17.224Z,4.10
2023-03-04T06:12:45.494Z,4.00
2023-03-04T06:15:14.403Z,3.70
2023-03-04T06:17:44.327Z,3.50
2023-03-04T06:20:13.989Z,3.70
2023-03-04T06:22:42.031Z,3.60
2023-03-04T06:25:12.428Z,3.60
2023-03-04T06:27:40.597Z,3.60
2023-03-04T06:30:10.552Z,3.60
2023-03-04T06:32:38.608Z,3.80
2023-03-04T06:35:08.003Z,4.00
2023-03-04T06:37:36.017Z,4.00
2023-03-04T06:40:04.609Z,4.30
2023-03-04T06:42:33.942Z,4.30
2023-03-04T06:45:02.008Z,4.30
2023-03-04T06:47:30.290Z,3.90
2023-03-04T06:49:58.272Z,3.90
2023-03-04T06:52:26.635Z,4.00
2023-03-04T06:54:54.687Z,4.00
2023-03-04T06:57:22.920Z,3.80
2023-03-04T06:59:52.311Z,4.00
2023-03-04T07:02:20.380Z,4.00
2023-03-04T07:04:48.631Z,4.10
2023-03-04T07:07:16.675Z,3.90
2023-03-04T07:09:47.971Z,4.10
2023-03-04T07:12:16.046Z,4.10
2023-03-04T07:14:44.084Z,4.10
2023-03-04T07:17:13.494Z,4.30
2023-03-04T07:19:41.810Z,4.20
2023-03-04T07:22:09.870Z,4.30
2023-03-04T07:24:37.965Z,4.20
2023-03-04T07:27:05.967Z,4.10
2023-03-04T07:29:33.991Z,4.10
2023-03-04T07:32:02.077Z,4.10
2023-03-04T07:34:31.435Z,4.20
2023-03-04T07:36:59.612Z,4.30
2023-03-04T07:39:27.866Z,4.40
2023-03-04T07:41:57.767Z,4.50
2023-03-04T07:44:25.983Z,4.50
2023-03-04T07:46:54.141Z,4.60
2023-03-04T07:49:22.255Z,4.80
2023-03-04T07:51:51.624Z,4.70
2023-03-04T07:54:20.156Z,4.70
2023-03-04T07:56:48.213Z,4.90
2023-03-04T07:59:16.219Z,4.70
2023-03-04T08:01:45.647Z,4.80
2023-03-04T08:04:13.861Z,4.80
2023-03-04T08:06:42.303Z,4.70
2023-03-04T08:09:13.596Z,4.80
2023-03-04T08:11:42.877Z,4.90
2023-03-04T08:14:12.829Z,4.90
2023-03-04T08:16:41.611Z,4.90
2023-03-04T08:19:09.852Z,4.90
2023-03-04T08:21:37.972Z,5.00
2023-03-04T08:24:08.697Z,5.10
2023-03-04T08:26:41.750Z,5.00
2023-03-04T08:29:12.846Z,4.70
2023-03-04T08:31:41.263Z,4.80
2023-03-04T08:34:11.456Z,4.70
2023-03-04T08:36:39.558Z,4.80
2023-03-04T08:39:07.919Z,4.80
2023-03-04T08:41:36.142Z,4.70
2023-03-04T08:44:08.118Z,4.70
2023-03-04T08:46:36.187Z,4.80
2023-03-04T08:49:04.856Z,4.70
2023-03-04T08:51:33.202Z,4.90
2023-03-04T08:54:01.270Z,4.90
2023-03-04T08:56:29.446Z,5.00
2023-03-04T08:58:57.643Z,4.90
2023-03-04T09:01:27.113Z,4.80
2023-03-04T09:03:55.216Z,4.80
2023-03-04T09:06:23.224Z,4.80
2023-03-04T09:08:51.254Z,4.90
2023-03-04T09:11:19.700Z,4.80
2023-03-04T09:13:47.779Z,5.10
2023-03-04T09:16:16.565Z,5.00
2023-03-04T09:18:45.970Z,5.10
2023-03-04T09:21:14.014Z,4.90
2023-03-04T09:23:42.481Z,4.90
2023-03-04T09:26:24.444Z,5.00
2023-03-04T09:28:53.667Z,4.70
2023-03-04T09:31:22.481Z,5.00
2023-03-04T09:33:53.092Z,4.90
2023-03-04T09:36:21.817Z,4.90
2023-03-04T09:38:49.988Z,5.00
2023-03-04T09:41:21.603Z,5.00
2023-03-04T09:43:51.114Z,5.00
2023-03-04T09:46:26.966Z,5.10
2023-03-04T09:48:57.223Z,5.30
2023-03-04T09:51:42.885Z,5.40
2023-03-04T09:54:18.422Z,5.50
2023-03-04T09:56:46.469Z,5.50
2023-03-04T09:59:25.361Z,5.40
2023-03-04T10:01:56.969Z,5.40
2023-03-04T10:04:39.941Z,5.40
2023-03-04T10:07:16.321Z,5.40
2023-03-04T10:09:52.293Z,5.50
2023-03-04T10:12:25.588Z,5.60
2023-03-04T10:14:59.781Z,5.70
2023-03-04T10:17:36.910Z,5.60
2023-03-04T10:20:16.884Z,5.70
2023-03-04T10:22:49.078Z,5.80
2023-03-04T10:25:22.643Z,5.70
2023-03-04T10:27:53.927Z,5.90
2023-03-04T10:30:33.852Z,5.90
2023-03-04T10:33:01.840Z,6.00
2023-03-04T10:35:37.852Z,6.00
2023-03-04T10:38:06.476Z,6.00
2023-03-04T10:40:41.437Z,6.10
2023-03-04T10:43:17.316Z,5.60
2023-03-04T10:45:46.509Z,5.80
2023-03-04T10:48:22.322Z,5.80
2023-03-04T10:50:51.809Z,5.60
2023-03-04T10:53:34.473Z,5.60
2023-03-04T10:56:03.091Z,5.40
2023-03-04T10:58:31.351Z,5.70
2023-03-04T11:01:06.176Z,5.50
2023-03-04T11:03:37.064Z,5.40
2023-03-04T11:06:17.752Z,5.60
2023-03-04T11:08:47.519Z,5.60
2023-03-04T11:11:29.942Z,5.70
2023-03-04T11:14:02.355Z,5.70
2023-03-04T11:16:34.837Z,5.70
2023-03-04T11:19:07.511Z,5.70
2023-03-04T11:21:41.668Z,5.60
2023-03-04T11:24:27.638Z,5.50
2023-03-04T11:27:04.214Z,5.60
2023-03-04T11:29:38.158Z,5.80
2023-03-04T11:32:13.255Z,6.00
2023-03-04T11:34:48.092Z,5.70
2023-03-04T11:37:25.711Z,5.90
2023-03-04T11:39:58.334Z,6.00
2023-03-04T11:42:35.792Z,5.80
2023-03-04T11:45:04.388Z,5.70
2023-03-04T11:47:55.996Z,6.00
2023-03-04T11:50:32.535Z,5.50
2023-03-04T11:53:38.686Z,5.60
2023-03-04T11:56:29.362Z,5.70
2023-03-04T11:59:24.403Z,5.70
2023-03-04T12:02:12.213Z,5.70
2023-03-04T12:05:21.282Z,5.80
2023-03-04T12:08:50.971Z,5.80
2023-03-04T12:11:27.926Z,5.90
2023-03-04T12:14:13.098Z,6.10
2023-03-04T12:17:11.218Z,6.20
2023-03-04T12:20:02.276Z,6.20
2023-03-04T12:22:44.812Z,6.30
2023-03-04T12:25:42.651Z,6.40
2023-03-04T12:28:52.261Z,6.80
2023-03-04T12:31:35.726Z,6.60
2023-03-04T12:34:33.537Z,6.70
2023-03-04T12:37:37.346Z,7.10
2023-03-04T12:40:27.915Z,7.40
2023-03-04T12:43:20.407Z,7.80
2023-03-04T12:45:58.758Z,7.70
2023-03-04T12:48:33.200Z,7.60
2023-03-04T12:51:23.249Z,7.60
2023-03-04T12:54:07.086Z,7.60
2023-03-04T12:56:43.556Z,7.70
2023-03-04T12:59:18.274Z,7.70
2023-03-04T13:01:55.228Z,7.50
2023-03-04T13:04:30.725Z,7.40
2023-03-04T13:07:13.237Z,7.30
2023-03-04T13:09:51.380Z,7.20
2023-03-04T13:12:22.963Z,7.40
2023-03-04T13:15:20.064Z,7.20
2023-03-04T13:17:50.348Z,7.20
2023-03-04T13:20:26.302Z,7.20
2023-03-04T13:22:59.188Z,7.00
2023-03-04T13:25:50.239Z,7.20
2023-03-04T13:28:26.955Z,7.30
2023-03-04T13:31:22.213Z,7.50
2023-03-04T13:34:06.068Z,7.40
2023-03-04T13:36:56.502Z,7.50
2023-03-04T13:39:37.201Z,7.20
2023-03-04T13:42:38.911Z,7.20
2023-03-04T13:45:33.874Z,7.10
2023-03-04T13:48:04.489Z,7.20
2023-03-04T13:50:41.432Z,7.30
2023-03-04T13:53:44.507Z,7.30
2023-03-04T13:56:33.926Z,7.30
2023-03-04T13:59:20.347Z,7.50
2023-03-04T14:02:02.578Z,7.60
2023-03-04T14:04:35.356Z,7.50
2023-03-04T14:07:19.759Z,7.50
2023-03-04T14:10:01.175Z,7.40
2023-03-04T14:12:32.319Z,7.50
2023-03-04T14:15:04.764Z,7.40
2023-03-04T14:17:37.547Z,7.50
2023-03-04T14:20:08.871Z,7.40
2023-03-04T14:22:41.210Z,7.20
2023-03-04T14:25:24.608Z,7.30
2023-03-04T14:28:04.892Z,7.40
2023-03-04T14:30:43.638Z,7.50
2023-03-04T14:33:23.520Z,7.70
2023-03-04T14:35:55.036Z,7.60
2023-03-04T14:38:27.732Z,7.30
2023-03-04T14:41:01.469Z,7.00
2023-03-04T14:43:31.940Z,7.00
2023-03-04T14:46:02.451Z,7.20
2023-03-04T14:48:35.310Z,7.30
2023-03-04T14:51:04.238Z,7.30
2023-03-04T14:53:34.070Z,7.00
2023-03-04T14:56:05.452Z,7.20
2023-03-04T14:58:35.995Z,7.30
2023-03-04T15:01:08.379Z,7.30
2023-03-04T15:03:38.007Z,7.20
2023-03-04T15:06:19.309Z,7.20
2023-03-04T15:08:48.529Z,7.30
2023-03-04T15:11:25.085Z,7.50
2023-03-04T15:13:56.143Z,7.70
2023-03-04T15:16:26.631Z,8.00
2023-03-04T15:18:59.739Z,8.00
2023-03-04T15:21:37.755Z,7.80
2023-03-04T15:24:08.255Z,7.90
2023-03-04T15:26:40.957Z,7.90
2023-03-04T15:29:15.837Z,8.00
2023-03-04T15:31:44.697Z,8.00
2023-03-04T15:34:16.370Z,7.70
2023-03-04T15:36:47.471Z,7.80
2023-03-04T15:39:18.306Z,7.70
2023-03-04T15:41:48.251Z,7.60
2023-03-04T15:44:16.265Z,7.70
2023-03-04T15:46:44.651Z,7.60
2023-03-04T15:49:14.099Z,7.60
2023-03-04T15:51:42.424Z,7.50
2023-03-04T15:54:14.763Z,7.70
2023-03-04T15:56:42.821Z,7.80
2023-03-04T15:59:14.506Z,7.80
2023-03-04T16:01:42.583Z,8.00
2023-03-04T16:04:16.694Z,8.00
2023-03-04T16:06:46.133Z,7.50
2023-03-04T16:09:17.846Z,7.70
2023-03-04T16:11:47.546Z,7.50
2023-03-04T16:14:17.660Z,7.40
2023-03-04T16:16:46.825Z,7.20
2023-03-04T16:19:16.238Z,7.50
2023-03-04T16:21:44.404Z,7.40
2023-03-04T16:24:18.723Z,7.50
2023-03-04T16:26:47.456Z,7.40
2023-03-04T16:29:16.552Z,7.30
2023-03-04T16:31:44.846Z,7.40
2023-03-04T16:34:12.930Z,7.60
2023-03-04T16:36:42.927Z,7.70
2023-03-04T16:39:24.102Z,7.70
2023-03-04T16:41:53.191Z,7.50
2023-03-04T16:44:21.347Z,7.40
2023-03-04T16:46:49.554Z,7.40
2023-03-04T16:49:17.640Z,7.40
2023-03-04T16:51:51.093Z,7.40
2023-03-04T16:54:25.168Z,7.60
2023-03-04T16:56:53.199Z,7.40
2023-03-04T16:59:21.231Z,7.40
2023-03-04T17:01:50.041Z,7.30
2023-03-04T17:04:18.077Z,7.40
2023-03-04T17:06:47.604Z,7.50
2023-03-04T17:09:15.583Z,7.70
2023-03-04T17:11:43.764Z,7.30
2023-03-04T17:14:11.788Z,7.30
2023-03-04T17:16:39.807Z,7.00
2023-03-04T17:19:07.807Z,7.30
2023-03-04T17:21:35.811Z,7.30
2023-03-04T17:24:05.507Z,7.10
2023-03-04T17:26:33.569Z,6.90
2023-03-04T17:29:01.628Z,6.80
2023-03-04T17:31:29.750Z,6.80
2023-03-04T17:33:57.847Z,6.80
2023-03-04T17:36:26.200Z,6.90
2023-03-04T17:38:54.331Z,6.90
2023-03-04T17:41:24.887Z,7.00
2023-03-04T17:43:56.802Z,6.90
2023-03-04T17:46:27.447Z,6.70
2023-03-04T17:48:59.095Z,6.70
2023-03-04T17:51:35.400Z,6.90
2023-03-04T17:54:05.568Z,6.80
2023-03-04T17:56:36.156Z,6.80
2023-03-04T17:59:07.839Z,6.90
2023-03-04T18:01:36.274Z,6.80
2023-03-04T18:04:04.546Z,6.90
2023-03-04T18:06:32.563Z,6.90
2023-03-04T18:09:00.714Z,6.90
2023-03-04T18:11:29.601Z,6.90
2023-03-04T18:14:01.584Z,7.00
2023-03-04T18:16:29.881Z,6.90
2023-03-04T18:19:00.146Z,6.80
2023-03-04T18:21:30.183Z,6.90
2023-03-04T18:23:59.019Z,6.70
2023-03-04T18:26:27.840Z,6.70
2023-03-04T18:28:58.385Z,6.90
2023-03-04T18:31:32.075Z,7.00
2023-03-04T18:34:01.636Z,7.10
2023-03-04T18:36:29.884Z,7.00
2023-03-04T18:38:59.365Z,6.90
2023-03-04T18:41:28.173Z,7.10
2023-03-04T18:43:57.737Z,7.00
2023-03-04T18:46:32.610Z,7.00
2023-03-04T18:49:04.965Z,7.00
2023-03-04T18:51:33.232Z,7.20
2023-03-04T18:54:01.835Z,6.90
2023-03-04T18:56:38.953Z,7.00
2023-03-04T18:59:15.542Z,6.90
2023-03-04T19:01:44.020Z,6.90
2023-03-04T19:04:13.058Z,6.80
2023-03-04T19:06:41.390Z,6.70
2023-03-04T19:09:10.149Z,6.80
2023-03-04T19:11:38.211Z,6.90
2023-03-04T19:14:06.848Z,7.00
2023-03-04T19:16:38.181Z,7.00
2023-03-04T19:19:06.299Z,7.10
2023-03-04T19:21:39.152Z,7.00
2023-03-04T19:24:08.295Z,6.90
2023-03-04T19:26:36.400Z,6.70
2023-03-04T19:29:05.086Z,6.80
2023-03-04T19:31:33.088Z,6.50
2023-03-04T19:34:02.656Z,6.50
2023-03-04T19:36:32.002Z,6.40
2023-03-04T19:39:00.984Z,6.60
2023-03-04T19:41:29.034Z,6.60
2023-03-04T19:43:57.889Z,6.50
2023-03-04T19:46:27.699Z,6.50
2023-03-04T19:48:57.934Z,6.50
2023-03-04T19:51:28.991Z,6.40
2023-03-04T19:53:57.676Z,6.30
2023-03-04T19:56:26.018Z,6.30
2023-03-04T19:58:55.064Z,6.40
2023-03-04T20:01:27.861Z,6.30
2023-03-04T20:03:56.609Z,6.40
2023-03-04T20:06:26.723Z,6.40
2023-03-04T20:08:58.541Z,6.50
2023-03-04T20:11:28.118Z,6.30
2023-03-04T20:13:58.335Z,6.20
2023-03-04T20:16:26.649Z,6.30
2023-03-04T20:18:55.295Z,6.40
2023-03-04T20:21:23.292Z,6.40
2023-03-04T20:23:51.361Z,6.50
2023-03-04T20:26:21.054Z,6.30
2023-03-04T20:28:49.026Z,6.20
2023-03-04T20:31:22.792Z,6.10
2023-03-04T20:33:52.657Z,6.10
2023-03-04T20:36:23.260Z,6.20
2023-03-04T20:39:01.551Z,6.20
2023-03-04T20:41:31.916Z,6.30
2023-03-04T20:43:59.951Z,6.40
2023-03-04T20:46:34.742Z,6.30
2023-03-04T20:49:05.454Z,6.20
2023-03-04T20:51:35.358Z,6.00
2023-03-04T20:54:05.581Z,6.20
2023-03-04T20:56:35.867Z,6.40
2023-03-04T20:59:06.779Z,6.40
2023-03-04T21:01:35.101Z,6.40
2023-03-04T21:04:03.827Z,6.30
2023-03-04T21:06:32.424Z,6.30
2023-03-04T21:09:03.708Z,6.20
2023-03-04T21:11:31.804Z,6.20
2023-03-04T21:14:04.396Z,6.10
2023-03-04T21:16:32.512Z,5.90
2023-03-04T21:19:00.896Z,5.90
2023-03-04T21:21:30.787Z,5.90
2023-03-04T21:24:00.243Z,5.80
2023-03-04T21:26:28.289Z,6.00
2023-03-04T21:28:56.357Z,5.90
2023-03-04T21:31:29.525Z,5.80
2023-03-04T21:34:00.190Z,5.80
2023-03-04T21:36:28.388Z,5.70
2023-03-04T21:38:56.421Z,5.70
2023-03-04T21:41:25.575Z,5.70
2023-03-04T21:43:53.594Z,5.70
2023-03-04T21:46:23.209Z,5.50
2023-03-04T21:48:52.653Z,5.40
2023-03-04T21:51:20.649Z,5.50
2023-03-04T21:53:49.305Z,5.50
2023-03-04T21:56:17.339Z,5.50
2023-03-04T21:58:45.940Z,5.70
2023-03-04T22:01:16.163Z,5.90
2023-03-04T22:03:44.456Z,5.80
2023-03-04T22:06:16.889Z,5.70
2023-03-04T22:08:44.906Z,5.70
2023-03-04T22:11:13.315Z,5.60
2023-03-04T22:13:41.630Z,5.60
2023-03-04T22:16:11.276Z,5.70
2023-03-04T22:18:40.663Z,5.60
2023-03-04T22:21:11.187Z,5.80
2023-03-04T22:23:41.075Z,5.50
2023-03-04T22:26:13.111Z,5.60
2023-03-04T22:28:41.862Z,5.80
2023-03-04T22:31:26.290Z,5.90
2023-03-04T22:33:54.301Z,5.90
2023-03-04T22:36:22.407Z,5.70
2023-03-04T22:38:51.859Z,5.70
2023-03-04T22:41:23.675Z,5.70
2023-03-04T22:43:52.256Z,5.60
2023-03-04T22:46:24.280Z,5.60
2023-03-04T22:48:54.567Z,5.70
2023-03-04T22:51:23.306Z,5.70
2023-03-04T22:53:53.448Z,5.70
2023-03-04T22:56:22.013Z,5.80
2023-03-04T22:58:50.306Z,5.80
2023-03-04T23:01:19.945Z,5.80
2023-03-04T23:03:50.300Z,5.70
2023-03-04T23:06:21.117Z,5.90
2023-03-04T23:08:52.493Z,5.80
2023-03-04T23:11:23.295Z,5.70
2023-03-04T23:13:52.135Z,5.60
2023-03-04T23:16:22.463Z,5.80
2023-03-04T23:18:51.233Z,5.70
2023-03-04T23:21:22.824Z,5.80
2023-03-04T23:23:53.088Z,5.70
2023-03-04T23:26:24.004Z,5.60
2023-03-04T23:28:52.392Z,5.60
2023-03-04T23:31:20.807Z,5.50
2023-03-04T23:33:49.271Z,5.60
2023-03-04T23:36:20.201Z,5.70
2023-03-04T23:38:49.472Z,5.60
2023-03-04T23:41:21.524Z,5.70
2023-03-04T23:43:51.237Z,5.70
2023-03-04T23:46:19.676Z,5.60
2023-03-04T23:48:48.068Z,5.70
2023-03-04T23:51:19.268Z,5.70
2023-03-04T23:53:48.198Z,5.80
2023-03-04T23:56:20.357Z,5.70
2023-03-04T23:58:48.783Z,5.50
